Time;durP1;ratioP1;P1;durP2;ratioP2;P2;SDS_P1;SDS_P2;PMS_P1;PMS_P2;Temp;Humidity;BMP_temperature;BMP_pressure;BME280_temperature;BME280_humidity;BME280_pressure;Samples;Min_cycle;Max_cycle;Signal;HPM_P1;HPM_P2
2022/09/24 00:00:51;;;;;;;7.80;7.10;;;11.00;1.00;;;;;;5073845;28;20166;-74
2022/09/24 00:03:20;;;;;;;8.37;7.57;;;11.00;1.00;;;;;;5073901;28;20405;-71
2022/09/24 00:05:46;;;;;;;9.53;8.00;;;11.00;1.00;;;;;;5072191;28;20427;-74
2022/09/24 00:08:14;;;;;;;10.00;8.83;;;10.90;1.00;;;;;;5073088;28;20400;-74
2022/09/24 00:10:43;;;;;;;8.73;7.93;;;10.90;1.00;;;;;;5073572;28;20379;-71
2022/09/24 00:13:13;;;;;;;7.63;6.93;;;10.90;1.00;;;;;;5072425;28;20404;-74
2022/09/24 00:15:43;;;;;;;11.30;7.67;;;10.90;1.00;;;;;;5084385;28;20478;-71
2022/09/24 00:18:10;;;;;;;7.03;6.53;;;10.90;1.00;;;;;;5092799;28;20393;-74
2022/09/24 00:20:37;;;;;;;7.80;7.00;;;10.90;1.00;;;;;;5093678;28;20370;-74
2022/09/24 00:23:04;;;;;;;9.10;8.10;;;11.00;1.00;;;;;;5092605;28;20379;-71
2022/09/24 00:28:15;;;;;;;10.77;7.67;;;11.00;1.00;;;;;;5093151;28;20500;-74
2022/09/24 00:30:42;;;;;;;7.53;6.83;;;11.00;1.00;;;;;;5092416;28;20431;-75
2022/09/24 00:33:08;;;;;;;8.03;7.33;;;11.00;1.00;;;;;;5093386;28;20920;-74
2022/09/24 00:35:35;;;;;;;7.80;7.10;;;10.90;1.00;;;;;;5091326;28;20530;-74
2022/09/24 00:38:01;;;;;;;11.43;7.47;;;10.90;1.00;;;;;;5093620;28;20870;-71
2022/09/24 00:40:28;;;;;;;7.37;6.67;;;10.90;1.00;;;;;;5093359;28;20411;-75
2022/09/24 00:42:54;;;;;;;9.03;8.20;;;10.90;1.00;;;;;;5092178;28;20197;-73
2022/09/24 00:45:20;;;;;;;8.67;5.90;;;10.90;1.00;;;;;;5092123;28;20479;-74
2022/09/24 00:47:46;;;;;;;7.77;7.07;;;10.90;1.00;;;;;;5092808;28;20258;-71
2022/09/24 00:50:33;;;;;;;8.57;6.63;;;10.90;1.00;;;;;;5093340;28;20595;-74
2022/09/24 00:53:09;;;;;;;9.10;7.87;;;10.90;1.00;;;;;;5084795;28;20399;-74
2022/09/24 00:55:36;;;;;;;8.53;7.60;;;10.90;1.00;;;;;;5071834;28;20436;-72
2022/09/24 00:58:06;;;;;;;7.80;7.10;;;10.90;1.00;;;;;;5089371;28;20416;-73
2022/09/24 01:00:32;;;;;;;7.87;6.97;;;11.00;1.00;;;;;;5093084;28;20465;-71
2022/09/24 01:03:03;;;;;;;7.97;7.00;;;11.00;1.00;;;;;;5091613;28;20374;-75
2022/09/24 01:05:29;;;;;;;7.07;6.57;;;11.00;1.00;;;;;;5091792;28;20416;-74
2022/09/24 01:07:56;;;;;;;7.80;7.20;;;11.00;1.00;;;;;;5091934;28;21066;-72
2022/09/24 01:10:46;;;;;;;7.50;6.90;;;11.10;1.00;;;;;;5091530;28;20425;-72
2022/09/24 01:13:39;;;;;;;9.10;8.00;;;11.10;1.00;;;;;;5091755;28;20390;-71
2022/09/24 01:16:11;;;;;;;10.20;7.10;;;11.10;1.00;;;;;;5092964;28;20518;-71
2022/09/24 01:18:49;;;;;;;9.00;8.07;;;11.20;1.00;;;;;;5096151;28;20386;-71
2022/09/24 01:21:28;;;;;;;10.27;8.30;;;11.20;1.00;;;;;;5095388;28;20471;-71
2022/09/24 01:24:13;;;;;;;12.87;8.13;;;11.20;1.00;;;;;;5095211;28;20428;-73
2022/09/24 01:27:07;;;;;;;10.63;8.83;;;11.30;1.00;;;;;;5095862;28;20500;-71
2022/09/24 01:29:54;;;;;;;9.80;8.80;;;11.30;8.00;;;;;;5096913;28;20494;-72
2022/09/24 01:32:23;;;;;;;8.97;8.03;;;11.30;1.00;;;;;;5096819;28;20895;-71
2022/09/24 01:34:54;;;;;;;8.80;8.10;;;11.40;1.00;;;;;;5094542;28;20455;-74
2022/09/24 01:37:24;;;;;;;8.40;7.70;;;11.40;1.00;;;;;;5096228;28;20371;-73
2022/09/24 01:39:52;;;;;;;8.13;7.47;;;11.40;1.00;;;;;;5095437;28;20451;-74
2022/09/24 01:42:19;;;;;;;9.47;8.57;;;11.40;6.20;;;;;;5096500;28;20388;-74
2022/09/24 01:44:46;;;;;;;11.00;10.00;;;11.30;1.00;;;;;;5094382;28;20381;-71
2022/09/24 01:47:18;;;;;;;10.87;9.53;;;11.40;1.00;;;;;;5096566;28;20806;-74
2022/09/24 01:49:45;;;;;;;10.50;9.43;;;11.40;22.00;;;;;;5096515;28;20870;-74
2022/09/24 01:52:16;;;;;;;8.60;7.90;;;11.40;1.00;;;;;;5096451;28;20385;-72
2022/09/24 01:54:49;;;;;;;12.53;9.30;;;11.40;10.50;;;;;;5093500;28;20795;-74
2022/09/24 01:57:34;;;;;;;10.43;9.23;;;11.40;17.00;;;;;;5095782;28;20908;-71
2022/09/24 02:00:08;;;;;;;10.50;8.87;;;11.40;12.40;;;;;;5096326;28;20391;-74
2022/09/24 02:02:57;;;;;;;11.33;10.33;;;11.40;20.40;;;;;;5096228;28;20992;-74
2022/09/24 02:05:38;;;;;;;11.77;10.70;;;11.40;25.00;;;;;;5094056;28;20406;-71
2022/09/24 02:08:10;;;;;;;10.83;9.77;;;11.40;7.60;;;;;;5095195;28;20439;-74
2022/09/24 02:10:54;;;;;;;9.43;8.57;;;11.40;1.00;;;;;;5081379;28;20935;-72
2022/09/24 02:13:23;;;;;;;9.90;9.10;;;11.40;31.40;;;;;;5075690;28;20382;-75
2022/09/24 02:15:53;;;;;;;11.20;9.50;;;11.40;32.30;;;;;;5074562;28;20419;-72
2022/09/24 02:18:24;;;;;;;13.53;12.17;;;11.40;30.50;;;;;;5074343;28;20390;-72
2022/09/24 02:20:51;;;;;;;12.43;10.57;;;11.40;37.90;;;;;;5078629;28;20485;-71
2022/09/24 02:23:19;;;;;;;10.77;9.87;;;11.40;40.70;;;;;;5095888;28;20398;-74
2022/09/24 02:25:54;;;;;;;9.87;8.87;;;11.40;11.60;;;;;;5095018;28;20397;-72
2022/09/24 02:28:20;;;;;;;8.97;8.17;;;11.40;1.00;;;;;;5095224;28;20374;-72
2022/09/24 02:31:06;;;;;;;11.23;10.13;;;11.40;16.00;;;;;;5095753;28;20386;-71
2022/09/24 02:36:21;;;;;;;9.87;8.90;;;11.40;7.50;;;;;;5095535;28;20424;-72
2022/09/24 02:38:47;;;;;;;10.10;9.10;;;11.40;1.00;;;;;;5095588;28;20524;-71
2022/09/24 02:41:13;;;;;;;9.40;8.50;;;11.40;12.40;;;;;;5095509;28;20453;-74
2022/09/24 02:43:39;;;;;;;8.93;8.23;;;11.40;9.60;;;;;;5094566;28;20238;-75
2022/09/24 02:46:08;;;;;;;9.37;8.30;;;11.40;20.20;;;;;;5095417;28;20801;-74
2022/09/24 02:48:35;;;;;;;9.83;8.93;;;11.40;25.30;;;;;;5093431;28;21160;-72
2022/09/24 02:51:03;;;;;;;10.90;9.73;;;11.40;10.50;;;;;;5094926;28;20370;-72
2022/09/24 02:53:29;;;;;;;13.40;12.00;;;11.40;16.60;;;;;;5093616;28;20390;-72
2022/09/24 02:55:55;;;;;;;14.87;11.53;;;11.40;27.00;;;;;;5093205;28;20455;-70
2022/09/24 02:58:20;;;;;;;13.53;12.23;;;11.50;29.80;;;;;;5095223;28;20370;-71
2022/09/24 03:00:46;;;;;;;13.87;12.57;;;11.50;21.50;;;;;;5095146;28;20166;-72
2022/09/24 03:03:12;;;;;;;12.30;11.10;;;11.50;29.00;;;;;;5081896;28;20747;-71
2022/09/24 03:05:37;;;;;;;13.47;12.07;;;11.50;63.10;;;;;;5073842;28;20554;-74
2022/09/24 03:08:06;;;;;;;13.10;11.87;;;11.50;37.50;;;;;;5074929;28;20622;-71
2022/09/24 03:10:32;;;;;;;12.43;11.10;;;11.50;37.30;;;;;;5074119;28;20190;-72
2022/09/24 03:12:58;;;;;;;13.77;11.57;;;11.60;36.70;;;;;;5073269;28;20762;-71
2022/09/24 03:15:24;;;;;;;12.93;11.50;;;11.60;48.30;;;;;;5073743;28;20517;-74
2022/09/24 03:17:50;;;;;;;12.63;11.43;;;11.60;45.70;;;;;;5085355;28;21150;-71
2022/09/24 03:20:16;;;;;;;14.13;12.70;;;11.60;41.30;;;;;;5093451;28;20176;-72
2022/09/24 03:22:42;;;;;;;13.07;11.83;;;11.60;26.10;;;;;;5090170;28;20170;-71
2022/09/24 03:25:09;;;;;;;14.87;12.63;;;11.60;34.90;;;;;;5093621;28;20188;-74
2022/09/24 03:27:35;;;;;;;14.77;13.30;;;11.60;51.00;;;;;;5094515;28;20907;-75
2022/09/24 03:32:46;;;;;;;11.30;10.20;;;11.60;32.70;;;;;;5094559;28;20235;-72
2022/09/24 03:35:13;;;;;;;10.93;9.83;;;11.60;28.80;;;;;;5093394;28;20429;-71
2022/09/24 03:37:41;;;;;;;9.93;9.03;;;11.50;64.10;;;;;;5094324;28;20432;-72
2022/09/24 03:40:08;;;;;;;11.40;10.10;;;11.50;65.40;;;;;;5093788;28;20423;-74
2022/09/24 03:42:33;;;;;;;11.23;10.13;;;11.50;67.40;;;;;;5082989;28;20399;-74
2022/09/24 03:44:59;;;;;;;15.83;9.87;;;11.50;56.60;;;;;;5071713;28;20761;-75
2022/09/24 03:47:24;;;;;;;11.07;9.90;;;11.40;41.60;;;;;;5073347;28;20527;-71
2022/09/24 03:49:52;;;;;;;10.87;9.77;;;11.50;49.40;;;;;;5073869;28;20174;-71
2022/09/24 03:52:18;;;;;;;12.53;11.43;;;11.50;68.60;;;;;;5073765;28;20166;-72
2022/09/24 03:54:43;;;;;;;10.90;9.80;;;11.50;71.10;;;;;;5072860;28;20682;-74
2022/09/24 03:57:13;;;;;;;13.50;10.60;;;11.50;71.60;;;;;;5081601;28;20494;-71
2022/09/24 03:59:39;;;;;;;12.43;10.13;;;11.50;67.60;;;;;;5094070;28;20172;-72
2022/09/24 04:02:05;;;;;;;11.83;10.70;;;11.50;70.00;;;;;;5092995;28;20422;-71
2022/09/24 04:04:31;;;;;;;13.60;10.37;;;11.50;72.60;;;;;;5092600;28;20374;-72
2022/09/24 04:06:57;;;;;;;15.97;11.93;;;11.50;64.00;;;;;;5093578;28;20165;-75
2022/09/24 04:09:22;;;;;;;13.00;10.80;;;11.50;67.40;;;;;;5093869;28;20161;-74
2022/09/24 04:11:48;;;;;;;12.03;10.83;;;11.60;67.60;;;;;;5092642;28;20424;-71
2022/09/24 04:14:14;;;;;;;12.00;10.80;;;11.60;70.70;;;;;;5092907;28;20676;-73
2022/09/24 04:16:39;;;;;;;12.47;10.87;;;11.50;65.40;;;;;;5093655;28;20273;-74
2022/09/24 04:19:06;;;;;;;10.77;9.67;;;11.40;69.00;;;;;;5093609;28;20161;-74
2022/09/24 04:21:32;;;;;;;12.10;10.90;;;11.40;69.10;;;;;;5092933;28;20157;-75
2022/09/24 04:23:57;;;;;;;12.83;11.43;;;11.40;72.40;;;;;;5091832;28;20379;-72
2022/09/24 04:26:23;;;;;;;12.90;11.77;;;11.40;72.50;;;;;;5092089;28;20223;-74
2022/09/24 04:28:49;;;;;;;13.27;11.87;;;11.40;73.30;;;;;;5093608;28;20223;-74
2022/09/24 04:31:15;;;;;;;15.83;11.77;;;11.40;74.50;;;;;;5093501;28;20637;-74
2022/09/24 04:33:40;;;;;;;14.30;11.37;;;11.40;75.90;;;;;;5091255;28;20173;-72
2022/09/24 04:36:06;;;;;;;14.43;11.37;;;11.50;77.20;;;;;;5091659;28;20196;-75
2022/09/24 04:38:32;;;;;;;20.53;12.50;;;11.50;81.50;;;;;;5071597;28;20170;-71
2022/09/24 04:41:07;;;;;;;14.47;11.97;;;11.50;92.10;;;;;;5072556;28;20206;-75
2022/09/24 04:43:35;;;;;;;13.40;12.13;;;11.50;79.80;;;;;;5088702;28;20170;-72
2022/09/24 04:46:02;;;;;;;24.33;13.70;;;11.50;91.70;;;;;;5072506;28;20913;-71
2022/09/24 04:48:28;;;;;;;25.63;17.47;;;11.50;90.80;;;;;;5073117;28;20367;-71
2022/09/24 04:50:54;;;;;;;23.67;18.80;;;11.50;82.90;;;;;;5079504;28;20894;-70
2022/09/24 04:53:22;;;;;;;18.80;16.80;;;11.40;87.00;;;;;;5093121;28;20377;-72
2022/09/24 04:55:47;;;;;;;19.20;15.73;;;11.40;91.10;;;;;;5092138;28;20469;-68
2022/09/24 04:58:13;;;;;;;18.03;16.17;;;11.50;88.80;;;;;;5091433;28;20394;-72
2022/09/24 05:00:40;;;;;;;18.30;15.70;;;11.50;85.70;;;;;;5092068;28;20170;-74
2022/09/24 05:03:06;;;;;;;20.23;16.70;;;11.50;74.30;;;;;;5093066;28;20366;-69
2022/09/24 05:05:33;;;;;;;20.03;16.20;;;11.60;75.80;;;;;;5078272;28;20419;-71
2022/09/24 05:07:59;;;;;;;17.30;15.60;;;11.60;85.10;;;;;;5071560;28;20170;-69
2022/09/24 05:10:25;;;;;;;19.50;15.10;;;11.50;82.00;;;;;;5072904;28;20375;-72
2022/09/24 05:12:51;;;;;;;18.07;16.20;;;11.50;76.80;;;;;;5072921;28;20462;-72
2022/09/24 05:15:20;;;;;;;16.83;14.90;;;11.50;81.80;;;;;;5071787;28;20510;-72
2022/09/24 05:17:46;;;;;;;19.00;15.00;;;11.60;84.00;;;;;;5078381;28;20201;-74
2022/09/24 05:20:13;;;;;;;19.33;16.80;;;11.50;80.40;;;;;;5092989;28;20370;-74
2022/09/24 05:22:46;;;;;;;17.13;15.03;;;11.60;92.40;;;;;;5092996;28;20366;-72
2022/09/24 05:25:14;;;;;;;21.87;15.33;;;11.60;91.60;;;;;;5091942;28;20499;-71
2022/09/24 05:27:51;;;;;;;20.70;16.03;;;11.60;92.60;;;;;;5091659;28;20460;-70
2022/09/24 05:30:19;;;;;;;16.40;14.80;;;11.60;92.60;;;;;;5092753;28;20377;-72
2022/09/24 05:32:48;;;;;;;19.57;15.00;;;11.60;92.60;;;;;;5091555;28;20936;-72
2022/09/24 05:35:14;;;;;;;18.87;13.80;;;11.50;91.60;;;;;;5091349;28;20447;-72
2022/09/24 05:37:39;;;;;;;15.77;14.07;;;11.50;91.60;;;;;;5079873;28;20432;-73
2022/09/24 05:42:50;;;;;;;16.70;14.63;;;11.50;92.50;;;;;;5072644;28;20461;-69
2022/09/24 05:45:17;;;;;;;18.07;15.27;;;11.40;92.50;;;;;;5071505;28;20485;-71
2022/09/24 05:47:45;;;;;;;17.37;14.57;;;11.40;92.50;;;;;;5072311;28;20419;-71
2022/09/24 05:50:12;;;;;;;16.93;14.30;;;11.40;92.50;;;;;;5072254;28;20413;-74
2022/09/24 05:52:39;;;;;;;20.30;16.03;;;11.40;92.20;;;;;;5071891;28;20371;-75
2022/09/24 05:55:06;;;;;;;19.53;14.80;;;11.50;92.60;;;;;;5071336;28;20437;-74
2022/09/24 05:57:33;;;;;;;19.37;15.20;;;11.50;92.60;;;;;;5072185;28;20411;-73
2022/09/24 05:59:58;;;;;;;22.70;17.20;;;11.60;92.60;;;;;;5071904;28;20374;-74
2022/09/24 06:02:24;;;;;;;17.10;15.30;;;11.60;92.60;;;;;;5072835;28;20821;-77
2022/09/24 06:04:50;;;;;;;17.47;15.57;;;11.60;92.60;;;;;;5074993;28;20542;-77
2022/09/24 06:07:16;;;;;;;16.57;14.27;;;11.70;92.70;;;;;;5075885;28;20392;-74
2022/09/24 06:09:41;;;;;;;18.50;16.30;;;11.70;95.00;;;;;;5074711;28;20504;-74
2022/09/24 06:12:09;;;;;;;19.00;14.87;;;11.70;92.80;;;;;;5075532;28;20166;-70
2022/09/24 06:14:36;;;;;;;17.07;14.73;;;11.70;97.20;;;;;;5074604;28;20170;-73
2022/09/24 06:17:01;;;;;;;20.27;14.97;;;11.80;99.40;;;;;;5075698;28;20444;-69
2022/09/24 06:19:27;;;;;;;17.90;13.90;;;11.80;94.30;;;;;;5075639;28;20371;-72
2022/09/24 06:21:53;;;;;;;19.57;14.70;;;11.90;99.60;;;;;;5075873;28;20166;-71
2022/09/24 06:24:19;;;;;;;17.17;15.37;;;12.00;99.90;;;;;;5074648;28;20166;-72
2022/09/24 06:26:45;;;;;;;18.40;16.23;;;12.00;95.80;;;;;;5075436;28;20754;-69
2022/09/24 06:29:11;;;;;;;22.33;18.13;;;12.10;97.00;;;;;;5075246;28;20174;-68
2022/09/24 06:31:37;;;;;;;26.97;19.63;;;12.20;99.90;;;;;;5075216;28;20888;-71
2022/09/24 06:34:02;;;;;;;26.97;20.63;;;12.30;99.90;;;;;;5074714;28;20174;-69
2022/09/24 06:36:28;;;;;;;29.17;20.07;;;12.30;99.90;;;;;;5075248;28;20205;-72
2022/09/24 06:38:53;;;;;;;24.03;20.63;;;12.40;99.90;;;;;;5074617;28;20174;-69
2022/09/24 06:41:19;;;;;;;26.57;20.10;;;12.40;99.90;;;;;;5075508;28;20166;-73
2022/09/24 06:43:45;;;;;;;23.93;19.80;;;12.50;98.30;;;;;;5073383;28;20178;-68
2022/09/24 06:46:13;;;;;;;31.40;21.53;;;12.50;97.30;;;;;;5075464;28;20407;-71
2022/09/24 06:48:38;;;;;;;26.27;20.83;;;12.50;99.90;;;;;;5075146;28;20897;-71
2022/09/24 06:51:04;;;;;;;24.17;19.67;;;12.50;97.40;;;;;;5074792;28;20439;-71
2022/09/24 06:53:30;;;;;;;25.83;20.47;;;12.50;99.90;;;;;;5074270;28;20733;-71
2022/09/24 06:56:02;;;;;;;28.57;21.47;;;12.60;98.80;;;;;;5072545;28;20547;-72
2022/09/24 06:58:28;;;;;;;24.90;20.33;;;12.60;95.10;;;;;;5092529;28;20166;-68
2022/09/24 07:01:00;;;;;;;29.47;20.80;;;12.60;95.50;;;;;;5086201;28;20387;-72
2022/09/24 07:03:28;;;;;;;24.53;19.63;;;12.70;92.90;;;;;;5074700;28;20375;-73
2022/09/24 07:05:54;;;;;;;26.27;19.67;;;12.70;93.20;;;;;;5084518;28;20407;-71
2022/09/24 07:08:19;;;;;;;23.97;18.80;;;12.80;93.20;;;;;;5074676;28;20408;-69
2022/09/24 07:10:47;;;;;;;23.80;19.33;;;12.90;93.20;;;;;;5075360;28;20421;-71
2022/09/24 07:13:14;;;;;;;23.53;18.80;;;12.90;93.10;;;;;;5074847;28;20572;-71
2022/09/24 07:15:41;;;;;;;29.07;20.07;;;13.00;93.10;;;;;;5073584;28;20419;-69
2022/09/24 07:18:07;;;;;;;23.20;18.90;;;13.10;93.20;;;;;;5074619;28;20408;-69
2022/09/24 07:20:35;;;;;;;24.10;20.30;;;13.10;93.20;;;;;;5074509;28;20385;-72
2022/09/24 07:23:02;;;;;;;26.50;18.53;;;13.10;93.20;;;;;;5074392;28;20508;-74
2022/09/24 07:25:28;;;;;;;27.83;21.10;;;13.10;93.20;;;;;;5073947;28;20427;-72
2022/09/24 07:27:53;;;;;;;28.67;21.00;;;13.20;93.20;;;;;;5074457;28;20434;-73
2022/09/24 07:30:19;;;;;;;27.13;19.40;;;13.20;93.20;;;;;;5074014;28;20573;-71
2022/09/24 07:32:45;;;;;;;25.97;21.33;;;13.30;93.20;;;;;;5074071;28;20163;-73
2022/09/24 07:35:10;;;;;;;28.00;20.80;;;13.30;93.30;;;;;;5073267;28;20197;-72
2022/09/24 07:37:36;;;;;;;26.23;19.17;;;13.40;93.30;;;;;;5074197;28;20515;-73
2022/09/24 07:40:02;;;;;;;22.80;19.93;;;13.40;93.30;;;;;;5073754;28;20508;-74
2022/09/24 07:42:27;;;;;;;30.40;22.13;;;13.50;93.30;;;;;;5074163;28;20174;-71
2022/09/24 07:44:55;;;;;;;33.07;22.40;;;13.60;94.30;;;;;;5072950;28;20674;-72
2022/09/24 07:47:21;;;;;;;29.27;21.63;;;13.70;99.50;;;;;;5073805;28;20392;-73
2022/09/24 07:49:47;;;;;;;26.20;20.83;;;13.80;95.80;;;;;;5074015;28;20403;-73
2022/09/24 07:52:13;;;;;;;31.17;22.47;;;13.80;93.70;;;;;;5073958;28;20479;-72
2022/09/24 07:54:38;;;;;;;26.17;21.27;;;13.90;93.20;;;;;;5071997;28;20490;-73
2022/09/24 07:57:12;;;;;;;33.80;22.70;;;13.90;93.50;;;;;;5073697;28;20646;-72
2022/09/24 07:59:38;;;;;;;27.67;21.87;;;14.10;93.60;;;;;;5073708;28;20166;-73
2022/09/24 08:02:14;;;;;;;29.30;21.37;;;14.20;94.70;;;;;;5073573;28;20454;-73
2022/09/24 08:04:40;;;;;;;27.00;20.87;;;14.30;93.60;;;;;;5072148;28;20423;-73
2022/09/24 08:07:05;;;;;;;27.80;21.67;;;14.40;93.30;;;;;;5084883;28;20427;-72
2022/09/24 08:09:31;;;;;;;30.37;23.63;;;14.50;91.30;;;;;;5093829;28;20644;-72
2022/09/24 08:11:57;;;;;;;28.60;21.33;;;14.50;71.40;;;;;;5093981;28;20636;-72
2022/09/24 08:14:23;;;;;;;27.60;20.07;;;14.60;71.70;;;;;;5092926;28;20407;-73
2022/09/24 08:16:49;;;;;;;28.50;22.60;;;14.70;65.70;;;;;;5093538;28;20197;-74
2022/09/24 08:19:15;;;;;;;28.30;19.93;;;14.70;69.80;;;;;;5093680;28;20174;-72
2022/09/24 08:21:41;;;;;;;32.47;19.90;;;14.80;42.50;;;;;;5079794;28;20634;-72
2022/09/24 08:24:07;;;;;;;24.40;18.73;;;14.90;55.30;;;;;;5072352;28;20404;-72
2022/09/24 08:26:33;;;;;;;22.60;17.90;;;14.90;40.30;;;;;;5073035;28;20192;-73
2022/09/24 08:28:58;;;;;;;22.73;17.53;;;15.00;37.60;;;;;;5073276;28;20170;-71
2022/09/24 08:31:25;;;;;;;25.77;19.20;;;15.00;27.40;;;;;;5072513;28;20178;-73
2022/09/24 08:33:50;;;;;;;22.80;17.20;;;15.00;15.00;;;;;;5072534;28;20219;-71
2022/09/24 08:36:17;;;;;;;29.03;18.03;;;15.00;16.60;;;;;;5073113;28;20452;-73
2022/09/24 08:38:43;;;;;;;23.30;15.97;;;14.90;12.30;;;;;;5071873;28;20288;-72
2022/09/24 08:41:20;;;;;;;18.90;15.37;;;15.00;8.70;;;;;;5073029;28;20409;-73
2022/09/24 08:44:03;;;;;;;20.80;15.90;;;15.10;16.20;;;;;;5072254;28;20186;-72
2022/09/24 08:49:36;;;;;;;19.17;16.63;;;15.30;21.10;;;;;;5073003;28;20950;-72
2022/09/24 08:52:19;;;;;;;20.20;15.10;;;15.40;1.00;;;;;;5071850;28;20423;-72
2022/09/24 08:54:47;;;;;;;22.70;15.83;;;15.50;1.00;;;;;;5071882;28;20425;-73
2022/09/24 08:57:16;;;;;;;24.77;16.00;;;15.60;1.00;;;;;;5072731;28;20756;-74
2022/09/24 08:59:49;;;;;;;20.00;16.70;;;15.80;1.00;;;;;;5072396;28;20423;-71
2022/09/24 09:02:36;;;;;;;17.33;14.13;;;15.90;1.00;;;;;;5072980;28;20444;-73
2022/09/24 09:05:13;;;;;;;21.10;15.40;;;16.00;1.00;;;;;;5070839;28;20440;-70
2022/09/24 09:08:08;;;;;;;18.97;14.43;;;16.00;1.00;;;;;;5088275;28;20807;-73
2022/09/24 09:10:37;;;;;;;17.10;14.53;;;16.00;1.00;;;;;;5093254;28;20491;-73
2022/09/24 09:13:22;;;;;;;17.63;13.90;;;16.10;1.00;;;;;;5093012;28;20502;-74
2022/09/24 09:16:04;;;;;;;14.17;12.60;;;16.10;1.00;;;;;;5092097;28;20459;-75
2022/09/24 09:18:38;;;;;;;18.37;14.07;;;16.20;1.00;;;;;;5090831;28;20392;-73
2022/09/24 09:21:16;;;;;;;21.70;13.67;;;16.20;1.00;;;;;;5093013;28;20399;-70
2022/09/24 09:23:52;;;;;;;17.00;13.20;;;16.20;1.00;;;;;;5091915;28;20392;-70
2022/09/24 09:26:21;;;;;;;20.37;13.87;;;16.30;1.00;;;;;;5092073;28;20502;-70
2022/09/24 09:28:48;;;;;;;17.73;14.70;;;16.30;1.00;;;;;;5092840;28;20400;-70
2022/09/24 09:31:31;;;;;;;20.30;13.67;;;16.40;1.00;;;;;;5093122;28;20722;-74
2022/09/24 09:34:11;;;;;;;16.90;13.90;;;16.40;1.00;;;;;;5091823;28;21074;-70
2022/09/24 09:36:59;;;;;;;17.47;15.60;;;16.40;1.00;;;;;;5091149;28;20455;-73
2022/09/24 09:39:56;;;;;;;15.90;13.93;;;16.40;1.00;;;;;;5096694;28;20395;-70
2022/09/24 09:42:33;;;;;;;21.27;15.00;;;16.40;1.00;;;;;;5071656;28;20428;-70
2022/09/24 09:45:23;;;;;;;20.83;15.50;;;16.40;1.00;;;;;;5075329;28;20450;-74
2022/09/24 09:47:52;;;;;;;24.33;14.50;;;16.40;1.00;;;;;;5079335;28;20428;-69
2022/09/24 09:50:41;;;;;;;17.83;15.73;;;16.40;1.00;;;;;;5096459;28;20402;-69
2022/09/24 09:53:20;;;;;;;17.77;14.23;;;16.40;1.00;;;;;;5096259;28;20423;-69
2022/09/24 09:56:06;;;;;;;17.77;14.90;;;16.40;1.00;;;;;;5095427;28;20458;-70
2022/09/24 09:58:39;;;;;;;21.07;14.80;;;16.40;1.00;;;;;;5096517;28;20434;-73
2022/09/24 10:01:11;;;;;;;21.60;16.10;;;16.50;1.00;;;;;;5078060;28;20435;-69
2022/09/24 10:03:43;;;;;;;19.50;15.80;;;16.50;1.00;;;;;;5075519;28;20399;-74
2022/09/24 10:06:12;;;;;;;24.60;15.30;;;16.50;1.00;;;;;;5075782;28;20424;-73
2022/09/24 10:08:39;;;;;;;18.37;13.87;;;16.60;1.00;;;;;;5075992;28;20446;-73
2022/09/24 10:11:06;;;;;;;19.10;15.00;;;16.70;1.00;;;;;;5074257;28;20520;-69
2022/09/24 10:13:32;;;;;;;24.47;15.07;;;16.80;1.00;;;;;;5075544;28;20404;-73
2022/09/24 10:16:03;;;;;;;20.63;15.27;;;16.80;1.00;;;;;;5074863;28;20559;-72
2022/09/24 10:18:34;;;;;;;16.90;14.97;;;16.90;1.00;;;;;;5075724;28;20433;-73
2022/09/24 10:21:04;;;;;;;19.90;14.57;;;16.80;1.00;;;;;;5094109;28;20472;-73
2022/09/24 10:23:41;;;;;;;15.67;12.87;;;16.80;1.00;;;;;;5095636;28;20917;-70
2022/09/24 10:26:08;;;;;;;17.10;12.80;;;16.90;1.00;;;;;;5095623;28;20938;-70
2022/09/24 10:31:29;;;;;;;17.73;12.57;;;16.90;1.00;;;;;;5095805;28;20487;-71
2022/09/24 10:33:57;;;;;;;16.40;13.93;;;17.10;1.00;;;;;;5094109;28;20427;-69
2022/09/24 10:36:27;;;;;;;19.30;14.90;;;17.20;1.00;;;;;;5095405;28;20497;-68
2022/09/24 10:39:11;;;;;;;17.93;12.43;;;17.30;1.00;;;;;;5095617;28;20421;-73
2022/09/24 10:41:37;;;;;;;22.10;16.37;;;17.40;1.00;;;;;;5095537;28;20392;-68
2022/09/24 10:44:10;;;;;;;15.30;13.10;;;17.40;1.00;;;;;;5094728;28;20521;-74
2022/09/24 10:46:49;;;;;;;15.73;13.63;;;17.40;1.00;;;;;;5095179;28;20185;-71
2022/09/24 11:04:02;;;;;;;22.70;17.00;;;16.40;1.00;;;;;;5069224;28;20963;-70
2022/09/24 11:06:52;;;;;;;22.93;15.60;;;16.40;1.00;;;;;;5070307;28;20831;-70
2022/09/24 11:09:37;;;;;;;19.90;17.80;;;16.40;1.00;;;;;;5066072;28;20773;-74
2022/09/24 11:12:04;;;;;;;19.37;15.37;;;16.40;1.00;;;;;;5050399;28;20405;-70
2022/09/24 11:14:57;;;;;;;16.80;14.53;;;16.30;1.00;;;;;;5049484;28;20409;-68
2022/09/24 11:17:37;;;;;;;20.20;15.83;;;16.40;1.00;;;;;;5050119;28;20412;-73
2022/09/24 11:20:14;;;;;;;18.30;14.80;;;16.60;1.00;;;;;;5048551;28;20401;-73
2022/09/24 11:23:14;;;;;;;17.90;15.13;;;16.70;1.00;;;;;;5049917;28;20456;-73
2022/09/24 11:25:43;;;;;;;16.10;13.87;;;16.80;1.00;;;;;;5048240;28;20432;-69
2022/09/24 11:28:36;;;;;;;15.43;12.83;;;16.80;1.00;;;;;;5049970;28;20397;-73
2022/09/24 11:31:14;;;;;;;13.57;12.17;;;16.90;1.00;;;;;;5049849;28;20393;-72
2022/09/24 11:33:42;;;;;;;14.13;12.63;;;17.00;1.00;;;;;;5049118;28;20442;-71
2022/09/24 11:36:23;;;;;;;12.90;11.60;;;17.10;1.00;;;;;;5049684;28;20867;-72
2022/09/24 11:39:15;;;;;;;12.90;11.67;;;17.00;1.00;;;;;;5049612;28;20420;-71
2022/09/24 11:42:13;;;;;;;14.00;11.83;;;17.00;1.00;;;;;;5049433;28;20802;-71
2022/09/24 11:45:03;;;;;;;17.60;11.90;;;17.10;1.00;;;;;;5048933;28;20409;-69
2022/09/24 11:47:47;;;;;;;11.67;10.33;;;17.10;1.00;;;;;;5049641;28;20493;-70
2022/09/24 11:50:33;;;;;;;12.00;10.10;;;17.00;1.00;;;;;;5049546;28;20416;-70
2022/09/24 11:53:07;;;;;;;10.80;9.70;;;17.10;1.00;;;;;;5048236;28;20563;-73
2022/09/24 11:55:38;;;;;;;11.20;9.93;;;17.10;1.00;;;;;;5047567;28;20924;-70
2022/09/24 11:58:15;;;;;;;11.60;9.20;;;17.20;1.00;;;;;;5049154;28;20401;-72
2022/09/24 12:00:53;;;;;;;10.83;9.67;;;17.30;1.00;;;;;;5049414;28;20417;-75
2022/09/24 12:03:47;;;;;;;9.10;8.30;;;17.30;1.00;;;;;;5049258;28;20465;-71
2022/09/24 12:06:20;;;;;;;12.60;8.17;;;17.30;1.00;;;;;;5049161;28;20467;-69
2022/09/24 12:09:18;;;;;;;9.73;8.83;;;17.40;1.00;;;;;;5047873;28;20559;-71
2022/09/24 12:12:05;;;;;;;9.83;7.80;;;17.40;1.00;;;;;;5049145;28;20420;-73
2022/09/24 12:14:46;;;;;;;7.67;7.07;;;17.30;1.00;;;;;;5039465;28;20413;-69
2022/09/24 12:17:26;;;;;;;7.40;6.70;;;17.20;1.00;;;;;;5034831;28;20513;-74
2022/09/24 12:20:01;;;;;;;6.87;6.27;;;17.20;1.00;;;;;;5035903;28;20422;-74
2022/09/24 12:22:30;;;;;;;5.83;5.30;;;17.20;1.00;;;;;;5035703;28;20476;-70
2022/09/24 12:24:59;;;;;;;7.57;5.43;;;17.30;1.00;;;;;;5033911;28;20473;-74
2022/09/24 12:27:34;;;;;;;6.77;6.00;;;17.30;1.00;;;;;;5035569;28;20806;-73
2022/09/24 12:33:12;;;;;;;7.57;5.80;;;17.10;1.00;;;;;;5035412;28;20452;-71
2022/09/24 12:36:09;;;;;;;6.50;5.13;;;17.00;1.00;;;;;;5034753;28;20791;-72
2022/09/24 12:38:45;;;;;;;6.47;5.23;;;17.00;1.00;;;;;;5035581;28;20429;-70
2022/09/24 12:41:23;;;;;;;5.77;4.43;;;17.00;1.00;;;;;;5035418;28;20418;-74
2022/09/24 12:44:05;;;;;;;13.20;5.90;;;17.00;1.00;;;;;;5034710;28;20460;-70
2022/09/24 12:46:45;;;;;;;5.43;4.93;;;16.90;1.00;;;;;;5034033;28;20521;-71
2022/09/24 12:49:36;;;;;;;5.37;4.80;;;16.90;1.00;;;;;;5035466;28;20448;-70
2022/09/24 12:52:30;;;;;;;8.47;6.03;;;16.90;1.00;;;;;;5035063;28;20460;-72
2022/09/24 12:54:59;;;;;;;9.03;6.23;;;16.80;1.00;;;;;;5034451;28;20422;-70
2022/09/24 12:57:40;;;;;;;9.10;5.33;;;16.90;1.00;;;;;;5035028;28;20402;-71
2022/09/24 13:00:30;;;;;;;6.13;5.37;;;16.80;1.00;;;;;;5034952;28;20417;-74
2022/09/24 13:02:57;;;;;;;6.30;5.50;;;16.80;1.00;;;;;;5034859;28;20462;-67
2022/09/24 13:05:25;;;;;;;7.93;6.40;;;16.60;1.00;;;;;;5034226;28;20430;-72
2022/09/24 13:08:23;;;;;;;8.20;6.17;;;16.50;1.00;;;;;;5033641;28;20422;-67
2022/09/24 13:11:31;;;;;;;6.07;5.30;;;16.60;1.00;;;;;;5034635;28;20434;-68
2022/09/24 13:14:12;;;;;;;7.80;6.13;;;16.40;1.00;;;;;;5034106;28;20464;-73
2022/09/24 13:16:40;;;;;;;7.23;6.53;;;16.30;1.00;;;;;;5034627;28;20430;-68
2022/09/24 13:19:37;;;;;;;7.03;6.37;;;16.30;1.00;;;;;;5034680;28;20541;-68
2022/09/24 13:22:04;;;;;;;11.20;8.33;;;16.30;1.00;;;;;;5035504;28;20536;-68
2022/09/24 13:24:49;;;;;;;7.40;6.70;;;16.30;1.00;;;;;;5033932;28;20410;-73
2022/09/24 13:27:36;;;;;;;6.43;5.80;;;16.40;1.00;;;;;;5033884;28;20464;-67
2022/09/24 13:30:29;;;;;;;6.10;5.60;;;16.30;1.00;;;;;;5034245;28;20438;-67
2022/09/24 13:33:08;;;;;;;5.70;5.10;;;16.30;1.00;;;;;;5034424;28;20394;-73
2022/09/24 13:35:43;;;;;;;6.13;5.60;;;16.30;1.00;;;;;;5033585;28;20441;-72